Dara'a, Syria

1:39 PM EET on February 13, 2016 (GMT +0200)
Marka International | | Change Station
CLOSE
Current Station
Airport
Location: Amman,
Elevation: 2556 ft
Nearby Weather Stations

Elev 2556 ft 31.97 °N, 35.99 °E | Updated 39 minutes ago

Haze
Haze
66 °F
Feels Like 66 °F
N
4
Wind Variable Wind from SSE

Today
High -- | Low -- °F
--% Chance of Precip.
Yesterday
High -- | Low -- °F
Precip. -- in
Pressure 30.12 in
Visibility 3.1 miles
Clouds
Dew Point 28 °F
Humidity 24%
Rainfall 0.00 in
Snow Depth Not available.
6:21 AM 5:18 PM
Waxing Crescent, 30% visible
METAR OJAM 131100Z 16003KT 5000 HZ NSC 19/M02 Q1020 NOSIG
Pressure 30.12 in
Visibility 3.1 miles
Clouds
Dew Point 28 °F
Humidity 24%
Rainfall 0.00 in
Snow Depth Not available.
6:21 AM 5:18 PM
Waxing Crescent, 30% visible
METAR OJAM 131100Z 16003KT 5000 HZ NSC 19/M02 Q1020 NOSIG

10-Day Weather Forecast

No radar image for this location.
×

Almanac

Astronomy

Feb. 13, 2016 Rise Set
Actual Time
Civil Twilight
Nautical Twilight
Astronomical Twilight
Moon
Length of Visible Light
Length of Day
Tomorrow will be .
, % of the Moon is Illuminated

Today's Extremes

Country Highs Country Lows

Community

WunderPhotos

Upload Photos

1,892,541 photos uploaded!

WunderBlog® & News

Nearby

Air Quality

  Air Quality AQ Index Pollutant
Not available.

Snow Depth

Station Depth Elevation

Earthquake Activity

City Distance Mag. Time & Date
Minimum magnitude displayed is 2.5.

Coastal Water Temperatures

Place Temperature

Stations

Nearby Weather Stations

Station Location Temp. Windchill Dew Point Humidity Wind Precip. Elev Updated Type